Número do voo
TLA1504
Partida Destino
Tefé Airport (SBTF) Ver Cartas Aéreas

Eduardo Gomes International Airport (SBEG) Ver Cartas Aéreas

Hora de Partida Hora de Chegada
14:00 15:30
Aeronave Distância
EMB-120 281nm
METAR do Aeroporto de Partida METAR do Aeroporto de Destino
SBTF 252245Z 00000KT 9999 FEW010 25/25 Q1008 SBEG 260700Z 03002KT CAVOK 25/23 Q1010
Rota

UA566

SkyVector

 

Notas

Dados adicionais









Copyright © 2020 Todos os direitos reservados. Tropical Linhas Aereas Virtuais

Cms by phpVMS